To NAV CANADA Home Page Login to a new session Search on AWWS site Feedback and Comments Disclaimer Vers la page française équivalente Tips FAQ What's new on the site To the Forecasts and Observations / NOTAM section To "File a Flight Plan" website Publications and other links Update of the User's profile FIC Telephone Numbers My Weather Data Folder Route Weather Data Regional Weather Data Local Weather Data To the Forecasts and Observations / NOTAM section
Request Generated 04/24/2014 at 20:55:44 UTC . Weather information available at that time is displayed.

METAR/TAF

LA RONGE/LA RONGE (BARBER FIELD)/SK    

METAR CYVC 242000Z 05018G24KT 15SM OVC060 01/M04 A2989 RMK SC8
SLP142=
METAR CYVC 241900Z 05017G24KT 15SM OVC060 01/M05 A2989 RMK SC8
SLP141=
METAR CYVC 241800Z 06014G25KT 15SM OVC020 M00/M05 A2990 RMK SC8
SLP145=

TAF CYVC 241838Z 2419/2507 07015G25KT P6SM OVC025 TEMPO 2419/2507 2SM
-SN OVC012
RMK NXT FCST BY 250100Z=
Your time UTC time
Weather data provided by Environment Canada and NAV CANADA